createdAt,value
2019-02-01T00:01:52.312Z,21.77
2019-02-01T00:04:18.641Z,21.75
2019-02-01T00:06:44.962Z,21.74
2019-02-01T00:09:11.282Z,21.76
2019-02-01T00:11:37.614Z,21.77
2019-02-01T00:14:03.946Z,21.75
2019-02-01T00:16:30.274Z,21.70
2019-02-01T00:18:56.645Z,21.68
2019-02-01T00:21:22.978Z,21.70
2019-02-01T00:23:49.326Z,21.66
2019-02-01T00:26:15.676Z,21.66
2019-02-01T00:28:42.019Z,21.69
2019-02-01T00:31:08.358Z,21.62
2019-02-01T00:33:34.689Z,21.63
2019-02-01T00:36:01.053Z,21.62
2019-02-01T00:38:30.626Z,21.61
2019-02-01T00:40:57.109Z,21.61
2019-02-01T00:43:23.440Z,21.61
2019-02-01T00:45:49.822Z,21.56
2019-02-01T00:48:16.153Z,21.54
2019-02-01T00:50:42.513Z,21.55
2019-02-01T00:53:08.846Z,21.57
2019-02-01T00:55:35.260Z,21.53
2019-02-01T00:58:01.546Z,21.54
2019-02-01T01:00:27.906Z,21.51
2019-02-01T01:02:54.204Z,21.49
2019-02-01T01:05:20.537Z,21.52
2019-02-01T01:07:49.862Z,21.52
2019-02-01T01:10:13.288Z,21.39
2019-02-01T01:12:39.691Z,21.36
2019-02-01T01:15:06.017Z,21.31
2019-02-01T01:17:32.337Z,21.22
2019-02-01T01:19:58.665Z,21.29
2019-02-01T01:22:25.042Z,21.36
2019-02-01T01:24:51.377Z,21.33
2019-02-01T01:27:17.716Z,21.36
2019-02-01T01:29:44.104Z,21.35
2019-02-01T01:32:10.393Z,21.35
2019-02-01T01:34:36.736Z,21.47
2019-02-01T01:37:03.094Z,21.38
2019-02-01T01:39:29.557Z,21.36
2019-02-01T01:41:55.897Z,21.37
2019-02-01T01:44:22.325Z,21.43
2019-02-01T01:46:48.656Z,21.42
2019-02-01T01:49:14.986Z,21.48
2019-02-01T01:51:41.404Z,21.45
2019-02-01T01:54:07.746Z,21.45
2019-02-01T01:56:34.069Z,21.45
2019-02-01T01:59:00.417Z,21.58
2019-02-01T02:01:26.753Z,21.45
2019-02-01T02:03:53.101Z,21.52
2019-02-01T02:06:19.429Z,21.55
2019-02-01T02:08:45.798Z,21.58
2019-02-01T02:11:12.253Z,21.68
2019-02-01T02:13:38.649Z,21.77
2019-02-01T02:16:04.970Z,21.71
2019-02-01T02:18:31.333Z,21.73
2019-02-01T02:20:57.679Z,21.68
2019-02-01T02:23:24.014Z,21.65
2019-02-01T02:25:50.346Z,21.72
2019-02-01T02:28:16.754Z,21.73
2019-02-01T02:30:43.201Z,21.72
2019-02-01T02:33:09.597Z,21.82
2019-02-01T02:35:35.942Z,21.86
2019-02-01T02:38:02.298Z,21.91
2019-02-01T02:40:28.632Z,21.91
2019-02-01T02:42:54.969Z,21.93
2019-02-01T02:45:21.301Z,21.98
2019-02-01T02:47:47.648Z,21.92
2019-02-01T02:50:13.978Z,21.93
2019-02-01T02:52:40.300Z,22.01
2019-02-01T02:55:06.647Z,22.01
2019-02-01T02:57:32.997Z,22.04
2019-02-01T02:59:59.318Z,22.02
2019-02-01T03:02:25.753Z,22.01
2019-02-01T03:04:52.130Z,22.03
2019-02-01T03:07:18.463Z,22.07
2019-02-01T03:09:44.843Z,22.06
2019-02-01T03:12:11.141Z,22.04
2019-02-01T03:14:37.469Z,22.07
2019-02-01T03:17:03.840Z,22.04
2019-02-01T03:19:30.189Z,22.07
2019-02-01T03:21:56.510Z,22.06
2019-02-01T03:24:22.995Z,22.13
2019-02-01T03:26:49.160Z,22.11
2019-02-01T03:29:15.522Z,22.08
2019-02-01T03:31:41.863Z,22.11
2019-02-01T03:34:08.200Z,22.13
2019-02-01T03:36:34.542Z,22.17
2019-02-01T03:39:00.950Z,22.13
2019-02-01T03:41:27.206Z,22.14
2019-02-01T03:43:53.535Z,22.15
2019-02-01T03:46:19.888Z,22.15
2019-02-01T03:48:46.224Z,22.13
2019-02-01T03:51:12.556Z,22.16
2019-02-01T03:53:38.878Z,22.22
2019-02-01T03:56:05.208Z,22.17
2019-02-01T03:58:31.541Z,22.24
2019-02-01T04:00:57.881Z,22.25
2019-02-01T04:03:24.210Z,22.24
2019-02-01T04:05:50.571Z,22.34
2019-02-01T04:08:17.028Z,22.37
2019-02-01T04:10:43.462Z,22.45
2019-02-01T04:13:09.802Z,22.46
2019-02-01T04:15:36.130Z,22.48
2019-02-01T04:18:02.533Z,22.55
2019-02-01T04:20:28.885Z,22.60
2019-02-01T04:22:55.217Z,22.61
2019-02-01T04:25:21.545Z,22.63
2019-02-01T04:27:47.934Z,22.62
2019-02-01T04:30:14.315Z,22.62
2019-02-01T04:32:40.723Z,22.62
2019-02-01T04:35:07.050Z,22.71
2019-02-01T04:37:33.516Z,22.75
2019-02-01T04:39:59.885Z,22.79
2019-02-01T04:42:26.267Z,22.81
2019-02-01T04:44:52.597Z,22.84
2019-02-01T04:47:18.932Z,22.85
2019-02-01T04:49:45.285Z,22.89
2019-02-01T04:52:11.666Z,22.90
2019-02-01T04:54:38.127Z,22.91
2019-02-01T04:57:04.472Z,22.94
2019-02-01T04:59:30.799Z,22.94
2019-02-01T05:01:57.184Z,22.94
2019-02-01T05:04:23.508Z,22.98
2019-02-01T05:06:49.844Z,23.00
2019-02-01T05:09:16.207Z,23.00
2019-02-01T05:11:42.540Z,23.00
2019-02-01T05:14:08.912Z,23.00
2019-02-01T05:16:35.334Z,23.04
2019-02-01T05:19:01.647Z,23.05
2019-02-01T05:21:27.989Z,23.02
2019-02-01T05:23:54.333Z,23.04
2019-02-01T05:26:20.706Z,23.06
2019-02-01T05:28:47.064Z,23.06
2019-02-01T05:31:13.388Z,23.10
2019-02-01T05:33:39.713Z,23.09
2019-02-01T05:36:06.051Z,23.12
2019-02-01T05:38:32.374Z,23.12
2019-02-01T05:40:58.725Z,23.14
2019-02-01T05:43:25.096Z,23.17
2019-02-01T05:45:51.476Z,23.20
2019-02-01T05:48:17.849Z,23.17
2019-02-01T05:50:44.217Z,23.22
2019-02-01T05:53:10.513Z,23.20
2019-02-01T05:55:36.915Z,23.21
2019-02-01T05:58:03.234Z,23.17
2019-02-01T06:00:32.628Z,23.19
2019-02-01T06:02:55.983Z,23.26
2019-02-01T06:05:22.295Z,23.30
2019-02-01T06:07:48.646Z,23.33
2019-02-01T06:10:14.980Z,23.32
2019-02-01T06:12:41.331Z,23.40
2019-02-01T06:15:08.075Z,23.48
2019-02-01T06:17:34.424Z,23.51
2019-02-01T06:20:00.798Z,23.58
2019-02-01T06:22:27.100Z,23.53
2019-02-01T06:24:53.598Z,23.66
2019-02-01T06:27:19.922Z,23.68
2019-02-01T06:29:46.275Z,23.71
2019-02-01T06:32:12.603Z,23.76
2019-02-01T06:34:39.077Z,23.86
2019-02-01T06:37:05.322Z,23.85
2019-02-01T06:39:31.662Z,23.95
2019-02-01T06:41:58.009Z,23.90
2019-02-01T06:44:24.389Z,24.00
2019-02-01T06:46:50.748Z,24.04
2019-02-01T06:49:17.104Z,24.02
2019-02-01T06:51:43.489Z,24.13
2019-02-01T06:54:09.848Z,24.26
2019-02-01T06:56:36.225Z,24.25
2019-02-01T06:59:02.564Z,24.29
2019-02-01T07:01:28.942Z,24.30
2019-02-01T07:03:55.288Z,24.33
2019-02-01T07:06:21.647Z,24.42
2019-02-01T07:08:48.006Z,24.44
2019-02-01T07:11:14.390Z,24.48
2019-02-01T07:13:40.733Z,24.44
2019-02-01T07:16:07.170Z,24.49
2019-02-01T07:18:33.571Z,24.56
2019-02-01T07:21:04.086Z,24.62
2019-02-01T07:23:26.469Z,24.56
2019-02-01T07:25:53.356Z,24.52
2019-02-01T07:28:19.702Z,24.58
2019-02-01T07:30:46.075Z,24.62
2019-02-01T07:33:12.410Z,24.58
2019-02-01T07:35:38.856Z,24.61
2019-02-01T07:38:05.166Z,24.60
2019-02-01T07:40:31.500Z,24.69
2019-02-01T07:42:58.012Z,24.69
2019-02-01T07:45:24.748Z,24.66
2019-02-01T07:47:51.306Z,24.57
2019-02-01T07:50:24.146Z,24.68
2019-02-01T07:52:44.159Z,24.52
2019-02-01T07:55:10.527Z,24.89
2019-02-01T07:57:36.825Z,24.74
2019-02-01T08:00:03.199Z,24.87
2019-02-01T08:02:29.619Z,24.77
2019-02-01T08:04:55.921Z,24.72
2019-02-01T08:07:22.323Z,24.89
2019-02-01T08:09:48.726Z,24.85
2019-02-01T08:12:15.223Z,24.90
2019-02-01T08:14:41.628Z,24.89
2019-02-01T08:17:07.995Z,25.01
2019-02-01T08:19:34.338Z,25.00
2019-02-01T08:22:00.965Z,25.00
2019-02-01T08:24:27.256Z,25.01
2019-02-01T08:26:53.610Z,25.06
2019-02-01T08:29:20.019Z,25.00
2019-02-01T08:31:46.361Z,25.00
2019-02-01T08:34:12.805Z,25.14
2019-02-01T08:36:39.156Z,25.13
2019-02-01T08:39:05.508Z,25.04
2019-02-01T08:41:31.880Z,25.08
2019-02-01T08:43:58.228Z,25.08
2019-02-01T08:46:24.579Z,25.14
2019-02-01T08:48:53.135Z,25.15
2019-02-01T08:51:19.466Z,25.15
2019-02-01T08:53:45.860Z,25.06
2019-02-01T08:56:12.213Z,25.17
2019-02-01T08:58:38.706Z,25.12
2019-02-01T09:01:05.316Z,25.17
2019-02-01T09:03:31.736Z,25.12
2019-02-01T09:05:58.119Z,25.33
2019-02-01T09:08:24.600Z,25.15
2019-02-01T09:10:51.048Z,25.14
2019-02-01T09:13:17.477Z,25.11
2019-02-01T09:15:44.006Z,25.27
2019-02-01T09:18:10.413Z,25.17
2019-02-01T09:20:36.880Z,25.15
2019-02-01T09:23:03.244Z,25.15
2019-02-01T09:25:29.737Z,25.07
2019-02-01T09:27:56.064Z,24.99
2019-02-01T09:30:22.414Z,24.98
2019-02-01T09:32:48.778Z,25.00
2019-02-01T09:35:16.387Z,24.85
2019-02-01T09:37:43.757Z,24.87
2019-02-01T09:40:08.996Z,24.95
2019-02-01T09:42:35.479Z,24.91
2019-02-01T09:45:01.820Z,24.83
2019-02-01T09:47:28.233Z,24.90
2019-02-01T09:49:54.572Z,24.83
2019-02-01T09:52:20.903Z,24.79
2019-02-01T09:54:47.246Z,24.75
2019-02-01T09:57:13.590Z,24.84
2019-02-01T09:59:39.917Z,24.87
2019-02-01T10:02:06.249Z,24.91
2019-02-01T10:04:32.632Z,24.93
2019-02-01T10:06:58.989Z,25.01
2019-02-01T10:09:25.362Z,24.92
2019-02-01T10:11:51.754Z,24.95
2019-02-01T10:14:18.084Z,25.03
2019-02-01T10:16:44.481Z,25.02
2019-02-01T10:19:10.848Z,24.98
2019-02-01T10:21:37.236Z,24.95
2019-02-01T10:24:03.564Z,25.01
2019-02-01T10:26:29.890Z,25.03
2019-02-01T10:28:56.222Z,25.04
2019-02-01T10:31:22.600Z,25.02
2019-02-01T10:33:48.935Z,25.06
2019-02-01T10:36:15.278Z,25.04
2019-02-01T10:38:41.809Z,25.05
2019-02-01T10:41:08.155Z,25.04
2019-02-01T10:43:34.583Z,25.08
2019-02-01T10:46:01.107Z,25.03
2019-02-01T10:48:27.504Z,25.07
2019-02-01T10:50:53.857Z,25.02
2019-02-01T10:53:20.198Z,25.05
2019-02-01T10:55:46.570Z,25.13
2019-02-01T10:58:12.979Z,25.17
2019-02-01T11:00:42.192Z,25.27
2019-02-01T11:03:08.591Z,25.18
2019-02-01T11:05:34.957Z,25.15
2019-02-01T11:08:01.333Z,25.13
2019-02-01T11:10:27.733Z,25.28
2019-02-01T11:12:54.274Z,25.20
2019-02-01T11:15:20.660Z,25.24
2019-02-01T11:17:47.152Z,25.18
2019-02-01T11:20:14.427Z,25.23
2019-02-01T11:22:40.827Z,25.31
2019-02-01T11:25:07.183Z,25.17
2019-02-01T11:27:33.571Z,25.32
2019-02-01T11:29:59.968Z,25.30
2019-02-01T11:32:26.333Z,25.23
2019-02-01T11:34:52.662Z,25.30
2019-02-01T11:37:19.035Z,25.29
2019-02-01T11:39:47.172Z,25.28
2019-02-01T11:42:11.902Z,25.28
2019-02-01T11:44:38.368Z,25.32
2019-02-01T11:47:04.883Z,25.29
2019-02-01T11:49:31.446Z,25.33
2019-02-01T11:51:59.455Z,25.37
2019-02-01T11:54:25.848Z,25.38
2019-02-01T11:56:52.196Z,25.35
2019-02-01T11:59:18.534Z,25.40
2019-02-01T12:01:44.916Z,25.34
2019-02-01T12:04:11.294Z,25.40
2019-02-01T12:06:37.621Z,25.53
2019-02-01T12:09:03.954Z,25.42
2019-02-01T12:11:30.344Z,25.36
2019-02-01T12:13:56.790Z,25.40
2019-02-01T12:16:23.200Z,25.49
2019-02-01T12:18:49.549Z,25.35
2019-02-01T12:21:15.891Z,25.39
2019-02-01T12:23:42.674Z,25.33
2019-02-01T12:26:09.153Z,25.35
2019-02-01T12:28:35.618Z,25.40
2019-02-01T12:31:01.983Z,25.51
2019-02-01T12:33:28.382Z,25.33
2019-02-01T12:35:54.814Z,25.38
2019-02-01T12:38:21.227Z,25.37
2019-02-01T12:40:47.597Z,25.33
2019-02-01T12:43:13.952Z,25.32
2019-02-01T12:45:40.297Z,25.26
2019-02-01T12:48:06.682Z,25.29
2019-02-01T12:50:33.028Z,25.28
2019-02-01T12:53:10.889Z,25.37
2019-02-01T12:55:25.798Z,25.35
2019-02-01T12:57:52.283Z,25.36
2019-02-01T13:00:18.704Z,25.27
2019-02-01T13:02:45.117Z,25.36
2019-02-01T13:05:11.607Z,25.39
2019-02-01T13:07:38.002Z,25.43
2019-02-01T13:10:04.505Z,25.34
2019-02-01T13:12:30.904Z,25.29
2019-02-01T13:14:57.277Z,25.42
2019-02-01T13:17:23.614Z,25.39
2019-02-01T13:19:49.946Z,25.48
2019-02-01T13:22:16.286Z,25.39
2019-02-01T13:24:45.272Z,25.40
2019-02-01T13:27:09.184Z,25.33
2019-02-01T13:29:35.586Z,25.40
2019-02-01T13:32:02.007Z,25.40
2019-02-01T13:34:28.461Z,25.38
2019-02-01T13:36:54.792Z,25.34
2019-02-01T13:39:22.228Z,25.27
2019-02-01T13:41:48.600Z,25.24
2019-02-01T13:44:15.029Z,25.22
2019-02-01T13:46:41.482Z,25.10
2019-02-01T13:49:07.880Z,25.26
2019-02-01T13:51:34.262Z,25.23
2019-02-01T13:54:00.610Z,25.27
2019-02-01T13:56:27.028Z,25.20
2019-02-01T13:58:53.641Z,25.29
2019-02-01T14:01:20.060Z,25.25
2019-02-01T14:03:46.498Z,25.32
2019-02-01T14:06:13.005Z,25.22
2019-02-01T14:08:39.366Z,25.23
2019-02-01T14:11:05.734Z,25.27
2019-02-01T14:13:32.075Z,25.34
2019-02-01T14:15:58.422Z,25.27
2019-02-01T14:18:24.812Z,25.26
2019-02-01T14:20:51.178Z,25.25
2019-02-01T14:23:17.558Z,25.31
2019-02-01T14:25:43.945Z,25.28
2019-02-01T14:28:10.274Z,25.27
2019-02-01T14:30:36.623Z,25.24
2019-02-01T14:33:03.050Z,25.22
2019-02-01T14:35:29.426Z,25.20
2019-02-01T14:37:55.811Z,25.21
2019-02-01T14:40:22.218Z,25.17
2019-02-01T14:42:48.517Z,25.22
2019-02-01T14:45:14.862Z,25.25
2019-02-01T14:47:41.307Z,25.24
2019-02-01T14:50:07.522Z,25.30
2019-02-01T14:52:33.852Z,25.14
2019-02-01T14:55:00.201Z,25.34
2019-02-01T14:57:26.559Z,25.22
2019-02-01T14:59:52.886Z,25.17
2019-02-01T15:02:19.254Z,25.16
2019-02-01T15:04:45.605Z,25.17
2019-02-01T15:07:12.017Z,25.07
2019-02-01T15:09:38.357Z,25.16
2019-02-01T15:12:04.700Z,25.10
2019-02-01T15:14:31.081Z,25.19
2019-02-01T15:16:57.473Z,25.15
2019-02-01T15:19:25.069Z,25.10
2019-02-01T15:21:51.417Z,25.10
2019-02-01T15:24:17.774Z,25.22
2019-02-01T15:26:44.253Z,25.20
2019-02-01T15:29:10.673Z,25.12
2019-02-01T15:31:37.078Z,25.20
2019-02-01T15:34:03.536Z,25.02
2019-02-01T15:36:29.882Z,25.04
2019-02-01T15:38:56.318Z,25.14
2019-02-01T15:41:22.685Z,25.17
2019-02-01T15:43:49.197Z,25.12
2019-02-01T15:46:15.459Z,25.15
2019-02-01T15:48:41.940Z,25.10
2019-02-01T15:51:08.287Z,25.15
2019-02-01T15:53:34.671Z,25.23
2019-02-01T15:56:01.011Z,25.06
2019-02-01T15:58:27.355Z,25.09
2019-02-01T16:00:53.735Z,24.98
2019-02-01T16:03:20.132Z,24.97
2019-02-01T16:05:46.461Z,24.96
2019-02-01T16:08:12.808Z,25.03
2019-02-01T16:10:39.149Z,25.01
2019-02-01T16:13:05.483Z,25.00
2019-02-01T16:15:31.807Z,24.96
2019-02-01T16:17:58.166Z,25.02
2019-02-01T16:20:24.495Z,24.95
2019-02-01T16:22:50.906Z,24.99
2019-02-01T16:25:17.308Z,24.99
2019-02-01T16:27:43.636Z,24.93
2019-02-01T16:30:09.970Z,24.96
2019-02-01T16:32:36.298Z,24.91
2019-02-01T16:35:02.654Z,24.94
2019-02-01T16:37:28.982Z,24.73
2019-02-01T16:39:55.379Z,24.83
2019-02-01T16:42:21.714Z,24.92
2019-02-01T16:44:48.038Z,24.99
2019-02-01T16:47:14.370Z,24.83
2019-02-01T16:49:40.745Z,24.81
2019-02-01T16:52:07.094Z,24.75
2019-02-01T16:54:43.939Z,24.90
2019-02-01T16:56:59.805Z,24.78
2019-02-01T16:59:26.138Z,24.77
2019-02-01T17:01:52.529Z,24.82
2019-02-01T17:04:18.869Z,24.70
2019-02-01T17:06:45.211Z,24.72
2019-02-01T17:09:11.576Z,24.67
2019-02-01T17:11:37.903Z,24.65
2019-02-01T17:14:04.279Z,24.58
2019-02-01T17:16:30.616Z,24.58
2019-02-01T17:18:56.966Z,24.54
2019-02-01T17:21:23.332Z,24.61
2019-02-01T17:23:49.678Z,24.59
2019-02-01T17:26:16.033Z,24.58
2019-02-01T17:28:42.395Z,24.56
2019-02-01T17:31:11.555Z,24.63
2019-02-01T17:33:35.105Z,24.44
2019-02-01T17:36:01.440Z,24.44
2019-02-01T17:38:27.823Z,24.41
2019-02-01T17:40:54.165Z,24.40
2019-02-01T17:43:20.500Z,24.45
2019-02-01T17:45:46.827Z,24.43
2019-02-01T17:48:13.212Z,24.40
2019-02-01T17:50:39.500Z,24.42
2019-02-01T17:53:05.829Z,24.37
2019-02-01T17:55:32.174Z,24.34
2019-02-01T17:57:58.507Z,24.38
2019-02-01T18:00:24.835Z,24.43
2019-02-01T18:02:51.169Z,24.28
2019-02-01T18:05:17.587Z,24.34
2019-02-01T18:07:43.927Z,24.26
2019-02-01T18:10:10.257Z,24.34
2019-02-01T18:12:36.673Z,24.34
2019-02-01T18:15:03.002Z,24.30
2019-02-01T18:17:30.331Z,24.29
2019-02-01T18:19:55.743Z,24.24
2019-02-01T18:22:22.071Z,24.24
2019-02-01T18:24:48.527Z,24.20
2019-02-01T18:27:14.870Z,24.18
2019-02-01T18:29:41.207Z,24.09
2019-02-01T18:32:07.568Z,24.02
2019-02-01T18:34:33.926Z,23.97
2019-02-01T18:37:00.276Z,23.91
2019-02-01T18:39:26.606Z,23.91
2019-02-01T18:41:52.965Z,23.92
2019-02-01T18:44:19.301Z,23.82
2019-02-01T18:46:45.678Z,23.79
2019-02-01T18:49:12.016Z,23.73
2019-02-01T18:51:38.353Z,23.70
2019-02-01T18:54:05.721Z,23.65
2019-02-01T18:56:32.157Z,23.67
2019-02-01T18:58:58.590Z,23.61
2019-02-01T19:01:24.934Z,23.60
2019-02-01T19:03:51.275Z,23.59
2019-02-01T19:06:17.647Z,23.55
2019-02-01T19:08:44.013Z,23.49
2019-02-01T19:11:10.298Z,23.49
2019-02-01T19:13:36.719Z,23.49
2019-02-01T19:16:03.058Z,23.45
2019-02-01T19:18:29.393Z,23.45
2019-02-01T19:20:55.734Z,23.42
2019-02-01T19:23:22.075Z,23.38
2019-02-01T19:25:48.409Z,23.36
2019-02-01T19:28:14.776Z,23.37
2019-02-01T19:30:41.183Z,23.33
2019-02-01T19:33:07.546Z,23.30
2019-02-01T19:35:33.996Z,23.27
2019-02-01T19:38:00.401Z,23.24
2019-02-01T19:40:26.773Z,23.24
2019-02-01T19:42:53.139Z,23.26
2019-02-01T19:45:19.607Z,23.22
2019-02-01T19:47:45.970Z,23.19
2019-02-01T19:50:12.345Z,23.15
2019-02-01T19:52:38.711Z,23.19
2019-02-01T19:55:05.081Z,23.17
2019-02-01T19:57:31.555Z,23.10
2019-02-01T19:59:57.987Z,23.10
2019-02-01T20:02:24.420Z,23.08
2019-02-01T20:04:50.789Z,23.09
2019-02-01T20:07:17.155Z,23.06
2019-02-01T20:09:43.578Z,23.05
2019-02-01T20:12:09.942Z,23.02
2019-02-01T20:14:38.523Z,23.04
2019-02-01T20:17:02.676Z,22.98
2019-02-01T20:19:29.084Z,22.97
2019-02-01T20:21:55.470Z,22.94
2019-02-01T20:24:21.918Z,22.97
2019-02-01T20:26:48.277Z,22.93
2019-02-01T20:29:14.642Z,22.93
2019-02-01T20:31:41.009Z,22.94
2019-02-01T20:34:07.375Z,22.89
2019-02-01T20:36:33.749Z,22.90
2019-02-01T20:39:00.105Z,22.88
2019-02-01T20:41:26.466Z,22.87
2019-02-01T20:43:52.964Z,22.84
2019-02-01T20:46:19.332Z,22.87
2019-02-01T20:48:45.707Z,22.86
2019-02-01T20:51:12.077Z,22.81
2019-02-01T20:53:38.472Z,22.83
2019-02-01T20:56:04.848Z,22.78
2019-02-01T20:58:31.211Z,22.78
2019-02-01T21:00:57.566Z,22.74
2019-02-01T21:03:23.926Z,22.78
2019-02-01T21:05:50.288Z,22.71
2019-02-01T21:08:16.653Z,22.74
2019-02-01T21:10:43.069Z,22.73
2019-02-01T21:13:14.414Z,22.70
2019-02-01T21:15:35.912Z,22.64
2019-02-01T21:18:02.307Z,22.67
2019-02-01T21:20:28.710Z,22.71
2019-02-01T21:22:55.148Z,22.64
2019-02-01T21:25:21.615Z,22.63
2019-02-01T21:27:48.049Z,22.64
2019-02-01T21:30:14.407Z,22.64
2019-02-01T21:32:40.774Z,22.60
2019-02-01T21:35:07.270Z,22.57
2019-02-01T21:37:33.765Z,22.59
2019-02-01T21:40:00.187Z,22.57
2019-02-01T21:42:26.651Z,22.54
2019-02-01T21:44:53.026Z,22.57
2019-02-01T21:47:19.387Z,22.54
2019-02-01T21:49:45.778Z,22.53
2019-02-01T21:52:12.134Z,22.54
2019-02-01T21:54:38.601Z,22.53
2019-02-01T21:57:04.935Z,22.47
2019-02-01T21:59:31.289Z,22.46
2019-02-01T22:01:57.685Z,22.48
2019-02-01T22:04:24.072Z,22.48
2019-02-01T22:06:50.495Z,22.46
2019-02-01T22:09:16.861Z,22.46
2019-02-01T22:11:43.258Z,22.45
2019-02-01T22:14:09.762Z,22.43
2019-02-01T22:16:36.292Z,22.45
2019-02-01T22:19:02.656Z,22.44
2019-02-01T22:21:29.033Z,22.42
2019-02-01T22:23:55.461Z,22.41
2019-02-01T22:26:21.849Z,22.41
2019-02-01T22:28:48.225Z,22.40
2019-02-01T22:31:14.627Z,22.36
2019-02-01T22:33:40.986Z,22.36
2019-02-01T22:36:07.443Z,22.37
2019-02-01T22:38:33.760Z,22.35
2019-02-01T22:41:00.134Z,22.38
2019-02-01T22:43:26.482Z,22.37
2019-02-01T22:45:53.176Z,22.35
2019-02-01T22:48:19.544Z,22.36
2019-02-01T22:50:45.904Z,22.36
2019-02-01T22:53:20.473Z,22.34
2019-02-01T22:55:38.639Z,22.33
2019-02-01T22:58:06.414Z,22.36
2019-02-01T23:00:31.401Z,22.30
2019-02-01T23:02:57.791Z,22.31
2019-02-01T23:05:24.110Z,22.30
2019-02-01T23:07:53.502Z,22.30
2019-02-01T23:10:19.877Z,22.30
2019-02-01T23:12:46.211Z,22.27
2019-02-01T23:15:12.545Z,22.28
2019-02-01T23:17:47.996Z,22.27
2019-02-01T23:20:16.567Z,22.25
2019-02-01T23:22:44.239Z,22.22
2019-02-01T23:25:09.296Z,22.26
2019-02-01T23:27:35.651Z,22.23
2019-02-01T23:30:01.950Z,22.25
2019-02-01T23:32:28.323Z,22.19
2019-02-01T23:34:54.651Z,22.15
2019-02-01T23:37:23.533Z,22.17
2019-02-01T23:39:52.817Z,22.16
2019-02-01T23:42:21.603Z,22.15
2019-02-01T23:44:49.149Z,22.10
2019-02-01T23:47:15.542Z,22.06
2019-02-01T23:49:42.716Z,22.10
2019-02-01T23:52:09.110Z,22.10
2019-02-01T23:54:35.417Z,22.02
2019-02-01T23:57:01.771Z,22.00
2019-02-01T23:59:28.154Z,22.00
